createdAt,value
2019-04-04T00:01:38.623Z,94.20
2019-04-04T00:04:06.412Z,95.00
2019-04-04T00:06:35.480Z,94.70
2019-04-04T00:09:02.689Z,97.30
2019-04-04T00:11:32.571Z,95.00
2019-04-04T00:14:01.112Z,94.00
2019-04-04T00:16:30.281Z,94.60
2019-04-04T00:18:59.064Z,93.80
2019-04-04T00:21:26.280Z,95.00
2019-04-04T00:23:56.688Z,94.40
2019-04-04T00:26:23.759Z,93.50
2019-04-04T00:28:53.185Z,93.70
2019-04-04T00:31:19.797Z,94.20
2019-04-04T00:33:48.917Z,93.50
2019-04-04T00:36:18.258Z,94.30
2019-04-04T00:38:44.854Z,94.00
2019-04-04T00:41:15.210Z,93.90
2019-04-04T00:43:43.392Z,94.30
2019-04-04T00:46:10.315Z,93.70
2019-04-04T00:48:38.974Z,94.60
2019-04-04T00:51:08.625Z,95.30
2019-04-04T00:53:36.503Z,95.90
2019-04-04T00:56:05.346Z,97.10
2019-04-04T00:58:31.940Z,97.00
2019-04-04T01:01:01.230Z,96.00
2019-04-04T01:03:30.811Z,96.10
2019-04-04T01:05:58.177Z,97.50
2019-04-04T01:08:28.215Z,98.90
2019-04-04T01:10:58.644Z,99.90
2019-04-04T01:13:27.548Z,98.30
2019-04-04T01:15:54.747Z,97.70
2019-04-04T01:18:25.436Z,97.00
2019-04-04T01:20:55.728Z,96.60
2019-04-04T01:23:22.371Z,96.80
2019-04-04T01:25:53.969Z,96.20
2019-04-04T01:28:23.296Z,97.30
2019-04-04T01:30:51.326Z,98.90
2019-04-04T01:33:19.696Z,97.80
2019-04-04T01:35:53.788Z,99.20
2019-04-04T01:38:23.737Z,99.10
2019-04-04T01:40:54.886Z,99.20
2019-04-04T01:43:24.276Z,99.90
2019-04-04T01:45:53.291Z,98.60
2019-04-04T01:48:21.491Z,98.10
2019-04-04T01:50:53.401Z,97.70
2019-04-04T01:53:21.856Z,97.60
2019-04-04T01:55:53.988Z,97.20
2019-04-04T01:58:22.847Z,97.70
2019-04-04T02:00:52.710Z,97.50
2019-04-04T02:03:22.410Z,99.90
2019-04-04T02:05:49.640Z,99.60
2019-04-04T02:08:17.747Z,99.80
2019-04-04T02:10:44.332Z,98.80
2019-04-04T02:13:11.286Z,99.30
2019-04-04T02:15:37.866Z,97.90
2019-04-04T02:18:07.254Z,99.60
2019-04-04T02:20:35.054Z,98.70
2019-04-04T02:23:05.446Z,99.90
2019-04-04T02:25:35.682Z,99.90
2019-04-04T02:28:04.324Z,98.80
2019-04-04T02:30:30.931Z,99.90
2019-04-04T02:33:00.473Z,99.90
2019-04-04T02:35:28.323Z,99.90
2019-04-04T02:37:56.201Z,99.90
2019-04-04T02:40:25.641Z,99.90
2019-04-04T02:42:55.230Z,99.90
2019-04-04T02:45:21.173Z,99.90
2019-04-04T02:47:51.211Z,99.90
2019-04-04T02:50:16.355Z,99.90
2019-04-04T02:52:46.008Z,99.90
2019-04-04T02:55:14.352Z,99.90
2019-04-04T02:57:42.396Z,99.90
2019-04-04T03:00:11.979Z,99.90
2019-04-04T03:02:38.589Z,99.90
2019-04-04T03:05:06.214Z,99.90
2019-04-04T03:07:33.067Z,99.90
2019-04-04T03:10:03.688Z,99.90
2019-04-04T03:12:34.009Z,99.90
2019-04-04T03:15:03.844Z,99.80
2019-04-04T03:17:32.667Z,99.90
2019-04-04T03:20:00.432Z,99.90
2019-04-04T03:22:39.443Z,99.90
2019-04-04T03:25:14.919Z,99.90
2019-04-04T03:27:41.692Z,99.90
2019-04-04T03:30:13.238Z,99.90
2019-04-04T03:32:39.266Z,99.90
2019-04-04T03:35:07.215Z,99.90
2019-04-04T03:37:34.060Z,99.90
2019-04-04T03:40:03.233Z,99.90
2019-04-04T03:42:31.911Z,99.90
2019-04-04T03:44:58.628Z,99.90
2019-04-04T03:47:25.565Z,99.90
2019-04-04T03:49:56.931Z,99.90
2019-04-04T03:52:24.519Z,99.90
2019-04-04T03:54:56.328Z,99.90
2019-04-04T03:57:25.365Z,99.90
2019-04-04T03:59:51.897Z,99.90
2019-04-04T04:02:22.269Z,99.90
2019-04-04T04:04:48.881Z,99.90
2019-04-04T04:07:19.831Z,99.90
2019-04-04T04:09:49.778Z,99.90
2019-04-04T04:12:16.368Z,99.90
2019-04-04T04:14:43.952Z,99.90
2019-04-04T04:20:03.308Z,99.90
2019-04-04T04:22:28.636Z,99.90
2019-04-04T04:24:56.613Z,99.90
2019-04-04T04:27:24.248Z,99.90
2019-04-04T04:29:51.730Z,99.90
2019-04-04T04:32:22.745Z,99.90
2019-04-04T04:34:51.879Z,99.90
2019-04-04T04:37:22.136Z,99.90
2019-04-04T04:39:49.746Z,99.90
2019-04-04T04:42:21.125Z,99.90
2019-04-04T04:44:47.099Z,99.90
2019-04-04T04:47:14.687Z,99.90
2019-04-04T04:49:42.515Z,99.90
2019-04-04T04:52:09.774Z,99.90
2019-04-04T04:54:42.565Z,99.90
2019-04-04T04:59:59.367Z,99.90
2019-04-04T05:02:27.216Z,99.90
2019-04-04T05:04:54.003Z,99.90
2019-04-04T05:07:21.189Z,99.90
2019-04-04T05:09:48.884Z,99.90
2019-04-04T07:18:36.802Z,88.60
2019-04-04T07:21:03.771Z,87.00
2019-04-04T07:23:30.718Z,86.90
2019-04-04T07:25:57.448Z,85.00
2019-04-04T07:28:24.082Z,86.50
2019-04-04T07:30:50.940Z,86.90
2019-04-04T07:33:17.701Z,86.80
2019-04-04T07:35:44.292Z,84.90
2019-04-04T07:38:10.903Z,86.50
2019-04-04T07:40:38.363Z,82.60
2019-04-04T07:43:04.928Z,84.50
2019-04-04T07:45:31.525Z,84.60
2019-04-04T07:47:59.376Z,81.60
2019-04-04T07:50:27.066Z,83.00
2019-04-04T07:52:54.159Z,83.30
2019-04-04T07:55:21.004Z,83.60
2019-04-04T07:57:50.917Z,83.30
2019-04-04T08:00:16.247Z,82.20
2019-04-04T08:02:42.886Z,81.60
2019-04-04T08:05:12.901Z,82.50
2019-04-04T08:07:38.567Z,82.20
2019-04-04T08:10:05.454Z,80.50
2019-04-04T08:12:32.075Z,82.60
2019-04-04T08:14:58.864Z,81.50
2019-04-04T08:17:25.626Z,82.80
2019-04-04T08:19:59.561Z,82.40
2019-04-04T08:22:20.896Z,82.00
2019-04-04T08:24:47.616Z,82.50
2019-04-04T08:27:14.253Z,81.80
2019-04-04T08:29:41.155Z,77.70
2019-04-04T08:32:07.780Z,80.40
2019-04-04T08:34:36.541Z,80.70
2019-04-04T08:37:03.188Z,79.60
2019-04-04T08:39:29.933Z,80.90
2019-04-04T08:41:56.562Z,79.20
2019-04-04T08:44:23.156Z,76.30
2019-04-04T08:46:49.862Z,76.90
2019-04-04T08:49:16.671Z,75.00
2019-04-04T08:51:43.839Z,73.80
2019-04-04T08:54:10.456Z,76.10
2019-04-04T08:56:37.378Z,74.80
2019-04-04T08:59:03.966Z,72.00
2019-04-04T09:01:30.631Z,72.00
2019-04-04T09:03:57.384Z,74.10
2019-04-04T09:06:24.322Z,71.30
2019-04-04T09:08:51.268Z,70.40
2019-04-04T09:11:17.912Z,72.20
2019-04-04T09:13:44.739Z,74.40
2019-04-04T09:16:11.369Z,71.50
2019-04-04T09:18:39.201Z,72.60
2019-04-04T09:21:05.953Z,73.10
2019-04-04T09:23:32.791Z,71.10
2019-04-04T09:26:05.942Z,68.10
2019-04-04T09:28:28.952Z,67.30
2019-04-04T09:30:55.926Z,70.10
2019-04-04T09:33:35.133Z,67.80
2019-04-04T09:36:01.863Z,67.20
2019-04-04T09:38:29.959Z,68.20
2019-04-04T09:40:56.821Z,66.80
2019-04-04T09:43:23.449Z,67.30
2019-04-04T09:45:50.077Z,66.10
2019-04-04T09:48:17.191Z,65.00
2019-04-04T09:50:44.100Z,63.80
2019-04-04T09:53:10.710Z,64.20
2019-04-04T09:55:37.357Z,65.40
2019-04-04T09:58:03.970Z,65.30
2019-04-04T10:00:35.564Z,68.00
2019-04-04T10:03:02.730Z,62.50
2019-04-04T10:05:29.657Z,62.70
2019-04-04T10:07:56.580Z,61.60
2019-04-04T10:10:23.370Z,62.80
2019-04-04T10:12:49.970Z,60.70
2019-04-04T10:15:17.564Z,61.60
2019-04-04T10:17:44.744Z,60.30
2019-04-04T10:20:11.335Z,60.20
2019-04-04T10:22:38.418Z,59.40
2019-04-04T10:25:05.004Z,58.60
2019-04-04T10:27:31.900Z,58.20
2019-04-04T10:29:58.807Z,58.40
2019-04-04T10:32:25.612Z,57.60
2019-04-04T10:34:52.275Z,57.70
2019-04-04T10:37:19.035Z,58.70
2019-04-04T10:39:47.706Z,58.50
2019-04-04T10:42:14.297Z,56.90
2019-04-04T10:44:45.121Z,56.90
2019-04-04T10:47:12.608Z,57.60
2019-04-04T10:49:39.437Z,53.90
2019-04-04T10:52:06.357Z,55.20
2019-04-04T10:54:33.577Z,54.50
2019-04-04T10:57:00.450Z,55.40
2019-04-04T10:59:28.336Z,57.50
2019-04-04T11:01:55.141Z,55.10
2019-04-04T11:04:22.102Z,55.00
2019-04-04T11:06:49.268Z,56.50
2019-04-04T11:09:16.169Z,54.90
2019-04-04T11:11:45.381Z,53.10
2019-04-04T11:14:12.294Z,53.00
2019-04-04T11:16:39.452Z,53.80
2019-04-04T11:19:06.221Z,54.50
2019-04-04T11:21:33.109Z,53.80
2019-04-04T11:24:00.526Z,53.50
2019-04-04T11:26:27.512Z,53.00
2019-04-04T11:28:57.113Z,53.80
2019-04-04T11:31:26.245Z,52.70
2019-04-04T11:33:54.228Z,53.20
2019-04-04T11:36:21.341Z,53.00
2019-04-04T11:38:51.494Z,53.50
2019-04-04T11:41:20.489Z,53.90
2019-04-04T11:43:55.489Z,54.10
2019-04-04T11:46:23.802Z,54.80
2019-04-04T11:48:53.258Z,53.40
2019-04-04T11:51:23.174Z,54.80
2019-04-04T11:53:54.222Z,54.10
2019-04-04T11:56:22.832Z,54.20
2019-04-04T11:58:51.918Z,54.50
2019-04-04T12:01:22.075Z,53.70
2019-04-04T12:03:51.315Z,53.30
2019-04-04T12:06:18.583Z,53.30
2019-04-04T12:08:45.532Z,53.50
2019-04-04T12:11:12.130Z,53.90
2019-04-04T12:13:39.252Z,54.70
2019-04-04T12:16:08.970Z,55.90
2019-04-04T12:18:39.482Z,56.40
2019-04-04T12:21:09.127Z,57.20
2019-04-04T12:23:35.868Z,57.10
2019-04-04T12:26:04.950Z,57.50
2019-04-04T12:28:35.630Z,57.90
2019-04-04T12:31:03.775Z,59.00
2019-04-04T12:33:32.901Z,59.30
2019-04-04T12:36:03.099Z,60.10
2019-04-04T12:38:29.967Z,60.40
2019-04-04T12:40:59.093Z,59.90
2019-04-04T12:43:28.710Z,59.80
2019-04-04T12:45:58.067Z,61.00
2019-04-04T12:48:25.130Z,61.60
2019-04-04T12:50:56.035Z,63.10
2019-04-04T12:53:22.728Z,62.70
2019-04-04T12:55:54.198Z,62.20
2019-04-04T12:58:21.172Z,62.80
2019-04-04T13:00:47.937Z,62.20
2019-04-04T13:03:16.579Z,63.00
2019-04-04T13:05:47.657Z,62.80
2019-04-04T13:08:16.494Z,63.70
2019-04-04T13:10:44.158Z,62.10
2019-04-04T13:13:13.121Z,61.70
2019-04-04T13:15:39.779Z,61.00
2019-04-04T13:18:07.626Z,61.30
2019-04-04T13:20:34.650Z,62.20
2019-04-04T13:23:01.594Z,62.10
2019-04-04T13:25:28.285Z,61.70
2019-04-04T13:28:04.405Z,63.10
2019-04-04T13:30:31.774Z,62.10
2019-04-04T13:33:03.548Z,63.40
2019-04-04T13:35:33.675Z,63.30
2019-04-04T13:38:04.593Z,62.40
2019-04-04T13:40:44.517Z,64.10
2019-04-04T13:43:08.301Z,61.40
2019-04-04T13:45:36.568Z,62.50
2019-04-04T13:48:04.452Z,62.60
2019-04-04T13:50:33.776Z,59.40
2019-04-04T13:53:00.611Z,60.80
2019-04-04T13:55:31.879Z,59.20
2019-04-04T13:57:58.835Z,59.20
2019-04-04T14:00:25.678Z,59.50
2019-04-04T14:02:52.808Z,58.30
2019-04-04T14:05:19.721Z,59.00
2019-04-04T14:07:46.569Z,58.90
2019-04-04T14:10:16.910Z,57.10
2019-04-04T14:12:42.485Z,57.20
2019-04-04T14:15:09.362Z,57.20
2019-04-04T14:17:36.336Z,56.10
2019-04-04T14:20:03.021Z,58.80
2019-04-04T14:22:30.172Z,58.60
2019-04-04T14:24:56.843Z,57.60
2019-04-04T14:27:26.985Z,58.00
2019-04-04T14:29:55.193Z,57.70
2019-04-04T14:32:21.339Z,58.20
2019-04-04T14:34:48.013Z,57.70
2019-04-04T14:37:14.857Z,57.10
2019-04-04T14:39:42.024Z,58.10
2019-04-04T14:42:08.997Z,58.80
2019-04-04T14:44:36.226Z,57.60
2019-04-04T14:47:03.052Z,57.60
2019-04-04T14:49:29.929Z,58.20
2019-04-04T14:51:56.794Z,57.70
2019-04-04T14:54:23.522Z,57.60
2019-04-04T14:56:50.856Z,58.00
2019-04-04T14:59:17.778Z,56.90
2019-04-04T15:01:44.630Z,58.60
2019-04-04T15:04:11.702Z,58.10
2019-04-04T15:06:38.577Z,57.90
2019-04-04T15:09:05.465Z,57.80
2019-04-04T15:11:32.351Z,57.90
2019-04-04T15:13:59.204Z,57.30
2019-04-04T15:16:25.860Z,57.90
2019-04-04T15:18:52.490Z,57.20
2019-04-04T15:21:19.438Z,57.00
2019-04-04T15:23:46.142Z,57.40
2019-04-04T15:26:12.891Z,58.30
2019-04-04T15:28:39.759Z,57.90
2019-04-04T15:31:06.587Z,58.60
2019-04-04T15:33:33.242Z,58.90
2019-04-04T15:35:59.823Z,57.00
2019-04-04T15:38:26.688Z,56.90
2019-04-04T15:40:53.347Z,57.20
2019-04-04T15:43:20.006Z,57.40
2019-04-04T15:45:46.656Z,57.80
2019-04-04T15:48:13.655Z,57.80
2019-04-04T15:50:40.284Z,57.20
2019-04-04T15:53:08.486Z,58.40
2019-04-04T15:55:35.129Z,58.20
2019-04-04T15:58:01.709Z,57.80
2019-04-04T16:00:32.738Z,58.10
2019-04-04T16:03:01.976Z,58.60
2019-04-04T16:05:33.182Z,58.80
2019-04-04T16:08:05.883Z,58.70
2019-04-04T16:10:32.673Z,58.40
2019-04-04T16:13:02.434Z,58.90
2019-04-04T16:15:31.659Z,58.50
2019-04-04T16:18:01.182Z,58.00
2019-04-04T16:20:30.721Z,58.30
2019-04-04T16:23:00.651Z,58.60
2019-04-04T16:25:29.387Z,58.40
2019-04-04T16:27:58.016Z,58.30
2019-04-04T16:30:27.221Z,59.20
2019-04-04T16:32:54.580Z,58.90
2019-04-04T16:35:23.451Z,59.50
2019-04-04T16:37:52.141Z,59.50
2019-04-04T16:40:18.749Z,60.20
2019-04-04T16:42:45.335Z,59.70
2019-04-04T16:45:12.220Z,59.20
2019-04-04T16:47:40.904Z,59.20
2019-04-04T16:50:10.853Z,59.90
2019-04-04T16:55:32.348Z,59.80
2019-04-04T16:58:00.252Z,59.70
2019-04-04T17:00:28.350Z,59.30
2019-04-04T17:02:56.589Z,59.00
2019-04-04T17:05:23.441Z,59.50
2019-04-04T17:07:50.046Z,59.40
2019-04-04T17:10:17.865Z,58.80
2019-04-04T17:12:44.578Z,58.90
2019-04-04T17:15:15.253Z,59.80
2019-04-04T17:17:43.590Z,59.40
2019-04-04T17:20:12.912Z,59.60
2019-04-04T17:22:43.457Z,59.90
2019-04-04T17:25:11.145Z,59.80
2019-04-04T17:27:37.756Z,59.50
2019-04-04T17:30:05.031Z,60.20
2019-04-04T17:32:33.126Z,60.10
2019-04-04T17:35:02.847Z,60.00
2019-04-04T17:37:32.019Z,60.40
2019-04-04T17:39:58.727Z,61.10
2019-04-04T17:42:32.095Z,62.40
2019-04-04T17:45:02.626Z,63.10
2019-04-04T17:47:29.637Z,63.40
2019-04-04T17:49:56.326Z,63.40
2019-04-04T17:52:22.924Z,63.30
2019-04-04T17:54:50.022Z,63.90
2019-04-04T17:57:16.909Z,63.30
2019-04-04T17:59:43.498Z,62.90
2019-04-04T18:02:12.534Z,62.80
2019-04-04T18:04:48.343Z,62.60
2019-04-04T18:07:08.138Z,63.00
2019-04-04T18:09:34.793Z,62.90
2019-04-04T18:14:33.039Z,63.10
2019-04-04T18:16:59.902Z,63.90
2019-04-04T18:19:26.779Z,64.10
2019-04-04T18:21:53.370Z,64.40
2019-04-04T18:24:20.228Z,63.00
2019-04-04T18:26:47.221Z,63.10
2019-04-04T18:29:14.172Z,62.90
2019-04-04T18:31:41.150Z,63.10
2019-04-04T18:34:08.837Z,62.60
2019-04-04T18:36:35.973Z,63.20
2019-04-04T18:39:02.720Z,62.10
2019-04-04T18:41:29.580Z,61.20
2019-04-04T18:43:56.367Z,60.70
2019-04-04T18:46:23.089Z,61.20
2019-04-04T18:48:49.875Z,61.20
2019-04-04T18:51:16.459Z,61.30
2019-04-04T18:53:43.406Z,60.60
2019-04-04T18:56:10.114Z,61.20
2019-04-04T18:58:36.703Z,61.10
2019-04-04T19:01:03.383Z,60.20
2019-04-04T19:03:30.043Z,60.20
2019-04-04T19:05:56.625Z,59.50
2019-04-04T19:08:23.802Z,59.80
2019-04-04T19:10:50.660Z,59.70
2019-04-04T19:13:21.974Z,59.40
2019-04-04T19:15:49.279Z,59.50
2019-04-04T19:18:15.920Z,59.60
2019-04-04T19:20:42.609Z,59.40
2019-04-04T19:23:09.217Z,60.00
2019-04-04T19:25:35.827Z,60.40
2019-04-04T19:28:02.449Z,60.40
2019-04-04T19:30:29.332Z,62.00
2019-04-04T19:32:56.051Z,62.60
2019-04-04T19:35:22.984Z,62.30
2019-04-04T19:38:00.066Z,62.90
2019-04-04T19:40:18.968Z,63.00
2019-04-04T19:42:49.727Z,63.50
2019-04-04T19:45:16.930Z,64.30
2019-04-04T19:47:43.600Z,64.40
2019-04-04T19:50:10.378Z,64.80
2019-04-04T19:52:37.076Z,65.10
2019-04-04T19:55:03.670Z,66.30
2019-04-04T19:57:30.515Z,66.10
2019-04-04T19:59:57.260Z,67.00
2019-04-04T20:02:24.133Z,67.60
2019-04-04T20:07:34.794Z,69.90
2019-04-04T20:10:01.394Z,68.60
2019-04-04T20:12:28.024Z,68.30
2019-04-04T20:14:54.745Z,68.50
2019-04-04T20:17:21.347Z,69.20
2019-04-04T20:19:47.932Z,70.00
2019-04-04T20:22:14.789Z,70.70
2019-04-04T20:24:41.684Z,73.70
2019-04-04T20:27:08.338Z,72.90
2019-04-04T20:29:35.182Z,71.40
2019-04-04T20:32:01.763Z,70.20
2019-04-04T20:34:28.671Z,70.70
2019-04-04T20:36:55.608Z,72.60
2019-04-04T20:39:22.189Z,73.90
2019-04-04T20:41:48.807Z,72.90
2019-04-04T20:44:15.385Z,74.30
2019-04-04T20:46:42.171Z,74.30
2019-04-04T20:49:09.230Z,75.30
2019-04-04T20:51:36.141Z,76.80
2019-04-04T20:54:02.806Z,75.90
2019-04-04T20:56:29.737Z,75.40
2019-04-04T20:58:56.371Z,76.30
2019-04-04T21:01:23.049Z,77.50
2019-04-04T21:03:49.647Z,77.50
2019-04-04T21:06:16.253Z,77.50
2019-04-04T21:08:43.041Z,77.10
2019-04-04T21:11:09.809Z,76.60
2019-04-04T21:13:36.690Z,78.80
2019-04-04T21:16:03.407Z,79.10
2019-04-04T21:18:29.992Z,80.60
2019-04-04T21:20:56.681Z,83.10
2019-04-04T21:23:24.575Z,83.40
2019-04-04T21:25:51.185Z,82.50
2019-04-04T21:28:17.802Z,83.60
2019-04-04T21:30:44.665Z,84.90
2019-04-04T21:33:12.327Z,83.00
2019-04-04T21:35:39.386Z,82.30
2019-04-04T21:38:09.650Z,82.50
2019-04-04T21:40:40.865Z,83.80
2019-04-04T21:43:09.625Z,87.90
2019-04-04T21:45:39.272Z,87.60
2019-04-04T21:48:07.491Z,89.10
2019-04-04T21:50:38.164Z,91.70
2019-04-04T21:53:06.237Z,90.80
2019-04-04T21:55:32.826Z,89.00
2019-04-04T21:57:59.565Z,87.80
2019-04-04T22:00:28.978Z,88.10
2019-04-04T22:02:59.177Z,90.10
2019-04-04T22:05:28.050Z,89.40
2019-04-04T22:07:57.984Z,89.80
2019-04-04T22:10:28.727Z,88.70
2019-04-04T22:13:02.885Z,89.40
2019-04-04T22:15:26.874Z,90.10
2019-04-04T22:17:55.956Z,90.00
2019-04-04T22:20:25.033Z,90.00
2019-04-04T22:25:53.184Z,90.10
2019-04-04T22:28:23.508Z,90.90
2019-04-04T22:30:51.425Z,90.10
2019-04-04T22:33:20.095Z,90.90
2019-04-04T22:35:50.756Z,91.30
2019-04-04T22:38:17.894Z,91.80
2019-04-04T22:40:45.384Z,92.90
2019-04-04T22:43:14.574Z,95.70
2019-04-04T22:45:44.000Z,96.40
2019-04-04T22:48:12.347Z,96.50
2019-04-04T22:50:40.541Z,96.00
2019-04-04T22:53:08.402Z,94.00
2019-04-04T22:55:37.092Z,94.80
2019-04-04T22:58:05.821Z,94.30
2019-04-04T23:00:33.953Z,95.10
2019-04-04T23:03:00.578Z,94.70
2019-04-04T23:05:27.348Z,94.60
2019-04-04T23:07:56.480Z,94.40
2019-04-04T23:10:25.513Z,93.60
2019-04-04T23:12:54.688Z,94.30
2019-04-04T23:15:21.267Z,93.40
2019-04-04T23:17:50.101Z,93.20
2019-04-04T23:20:17.023Z,93.50
2019-04-04T23:22:53.026Z,94.20
2019-04-04T23:25:12.040Z,95.20
2019-04-04T23:27:38.642Z,96.40
2019-04-04T23:30:05.776Z,99.10
2019-04-04T23:32:32.673Z,99.90
2019-04-04T23:34:59.262Z,99.90
2019-04-04T23:37:25.910Z,99.90
2019-04-04T23:39:52.533Z,99.90
2019-04-04T23:42:19.140Z,99.90
2019-04-04T23:44:59.944Z,98.20
2019-04-04T23:47:15.860Z,97.70
2019-04-04T23:49:42.500Z,99.60
2019-04-04T23:52:09.386Z,99.90
2019-04-04T23:54:36.143Z,99.40
2019-04-04T23:57:02.764Z,98.00
2019-04-04T23:59:29.390Z,99.20
